Time;durP1;ratioP1;P1;durP2;ratioP2;P2;SDS_P1;SDS_P2;PMS_P1;PMS_P2;Temp;Humidity;BMP_temperature;BMP_pressure;BME280_temperature;BME280_humidity;BME280_pressure;Samples;Min_cycle;Max_cycle;Signal;HPM_P1;HPM_P2
2022/07/16 00:01:24;;;;;;;6.50;2.42;;;17.90;99.90;;;;;;5055632;28;20037;-73
2022/07/16 00:03:51;;;;;;;;;;;18.10;99.90;;;;;;5055602;28;20036;-74
2022/07/16 00:06:17;;;;;;;6.88;2.72;;;18.10;99.90;;;;;;5055665;28;19947;-74
2022/07/16 00:08:42;;;;;;;4.15;2.60;;;18.30;99.90;;;;;;5053600;28;20618;-74
2022/07/16 00:11:08;;;;;;;6.07;2.95;;;18.20;99.90;;;;;;5055162;28;20074;-74
2022/07/16 00:13:34;;;;;;;8.18;2.83;;;18.10;99.90;;;;;;5055317;28;20026;-74
2022/07/16 00:16:00;;;;;;;7.80;2.30;;;18.30;99.90;;;;;;5053807;28;20029;-75
2022/07/16 00:21:10;;;;;;;5.15;2.22;;;18.60;99.90;;;;;;5054982;28;20056;-74
2022/07/16 00:23:36;;;;;;;7.93;2.33;;;19.00;99.90;;;;;;5054873;28;20025;-74
2022/07/16 00:26:02;;;;;;;4.78;2.22;;;18.90;99.90;;;;;;5054980;28;20017;-74
2022/07/16 00:28:28;;;;;;;8.18;2.30;;;18.40;99.90;;;;;;5053684;28;20024;-78
2022/07/16 00:30:54;;;;;;;7.82;2.10;;;18.20;99.90;;;;;;5054798;28;20524;-75
2022/07/16 00:33:19;;;;;;;4.93;1.77;;;18.10;99.90;;;;;;5054900;28;20025;-76
2022/07/16 00:35:45;;;;;;;4.53;1.95;;;18.30;99.90;;;;;;5055074;28;20033;-75
2022/07/16 00:38:12;;;;;;;5.32;1.98;;;18.40;99.90;;;;;;5054282;28;20025;-74
2022/07/16 00:40:38;;;;;;;6.28;1.73;;;18.20;99.90;;;;;;5053732;28;20017;-77
2022/07/16 00:43:04;;;;;;;3.58;1.80;;;18.20;99.90;;;;;;5054444;28;20047;-74
2022/07/16 00:45:30;;;;;;;6.00;1.60;;;18.30;99.90;;;;;;5053428;28;20021;-78
2022/07/16 00:47:55;;;;;;;3.58;1.50;;;18.20;99.90;;;;;;5054547;28;20029;-82
2022/07/16 00:50:21;;;;;;;7.25;2.00;;;18.10;99.90;;;;;;5053271;28;20025;-74
2022/07/16 00:52:47;;;;;;;5.43;1.55;;;18.30;99.90;;;;;;5054329;28;20116;-76
2022/07/16 00:55:13;;;;;;;4.32;1.77;;;18.50;99.90;;;;;;5054246;28;20082;-74
2022/07/16 00:57:38;;;;;;;3.25;1.38;;;18.70;99.90;;;;;;5054512;28;20025;-75
2022/07/16 01:00:05;;;;;;;7.15;2.10;;;18.60;99.90;;;;;;5053807;28;20431;-80
2022/07/16 01:02:34;;;;;;;6.70;1.80;;;18.80;99.90;;;;;;5053920;28;20021;-82
2022/07/16 01:05:00;;;;;;;4.30;1.67;;;18.90;99.90;;;;;;5053868;28;20543;-75
2022/07/16 01:07:27;;;;;;;8.00;1.98;;;18.90;99.90;;;;;;5054299;28;20029;-75
2022/07/16 01:09:53;;;;;;;5.15;1.70;;;19.00;99.90;;;;;;5054117;28;20068;-75
2022/07/16 01:12:19;;;;;;;5.03;1.70;;;19.10;99.90;;;;;;5054166;28;20021;-78
2022/07/16 01:14:45;;;;;;;3.83;1.98;;;19.10;99.90;;;;;;5054066;28;20029;-76
2022/07/16 01:17:11;;;;;;;2.58;1.23;;;19.10;99.90;;;;;;5053885;28;20064;-80
2022/07/16 01:19:37;;;;;;;5.38;1.92;;;18.90;99.90;;;;;;5053981;28;20036;-74
2022/07/16 01:22:03;;;;;;;4.72;1.58;;;18.90;99.90;;;;;;5053913;28;20025;-76
2022/07/16 01:24:28;;;;;;;4.03;2.08;;;18.60;99.90;;;;;;5053868;28;20048;-75
2022/07/16 01:26:54;;;;;;;3.58;1.52;;;18.40;99.90;;;;;;5054045;28;20025;-80
2022/07/16 01:29:20;;;;;;;5.78;2.65;;;17.90;99.90;;;;;;5053561;28;20033;-82
2022/07/16 01:31:46;;;;;;;5.75;3.30;;;17.40;99.90;;;;;;5053946;28;20021;-76
2022/07/16 01:34:26;;;;;;;6.45;3.28;;;17.20;99.90;;;;;;5053372;28;20121;-76
2022/07/16 01:36:58;;;;;;;5.93;3.05;;;17.30;99.90;;;;;;5053599;28;20025;-76
2022/07/16 01:39:25;;;;;;;5.93;2.97;;;17.60;99.90;;;;;;5053583;28;20393;-75
2022/07/16 01:41:57;;;;;;;6.53;2.63;;;17.50;99.90;;;;;;5052274;28;20074;-79
2022/07/16 01:44:25;;;;;;;9.10;3.10;;;17.50;99.90;;;;;;5053624;28;20108;-76
2022/07/16 01:46:52;;;;;;;3.80;2.55;;;17.40;99.90;;;;;;5053323;28;20387;-78
2022/07/16 01:49:18;;;;;;;6.78;3.25;;;17.50;99.90;;;;;;5052078;28;20025;-79
2022/07/16 01:51:44;;;;;;;7.50;2.80;;;17.70;99.90;;;;;;5052986;28;20056;-74
2022/07/16 01:54:10;;;;;;;7.75;3.05;;;18.00;99.90;;;;;;5052016;28;20029;-75
2022/07/16 01:56:36;;;;;;;7.35;2.78;;;18.00;99.90;;;;;;5053327;28;20097;-74
2022/07/16 01:59:02;;;;;;;6.20;2.85;;;18.00;99.90;;;;;;5052197;28;20033;-75
2022/07/16 02:01:28;;;;;;;6.88;3.03;;;17.40;99.90;;;;;;5053133;28;20029;-74
2022/07/16 02:03:57;;;;;;;8.05;3.35;;;17.30;99.90;;;;;;5053072;28;20051;-74
2022/07/16 02:06:23;;;;;;;7.70;2.97;;;17.40;99.90;;;;;;5051570;28;20025;-74
2022/07/16 02:08:49;;;;;;;8.80;3.28;;;17.60;99.90;;;;;;5053131;28;20430;-74
2022/07/16 02:11:15;;;;;;;8.40;3.17;;;17.50;99.90;;;;;;5052948;28;20032;-74
2022/07/16 02:13:42;;;;;;;12.07;3.35;;;17.70;99.90;;;;;;5051669;28;20134;-74
2022/07/16 02:16:08;;;;;;;11.00;3.17;;;17.40;99.90;;;;;;5051593;28;20488;-74
2022/07/16 02:18:35;;;;;;;8.80;3.10;;;17.50;99.90;;;;;;5052642;28;20494;-77
2022/07/16 02:21:01;;;;;;;6.60;3.35;;;17.40;99.90;;;;;;5052918;28;20163;-74
2022/07/16 02:23:27;;;;;;;6.43;3.67;;;17.40;99.90;;;;;;5052500;28;20036;-74
2022/07/16 02:25:53;;;;;;;6.22;3.20;;;17.60;99.90;;;;;;5051774;28;20381;-80
2022/07/16 02:28:19;;;;;;;6.68;3.47;;;17.70;99.90;;;;;;5052720;28;20377;-74
2022/07/16 02:30:47;;;;;;;9.10;2.78;;;17.70;99.90;;;;;;5052785;28;20073;-74
2022/07/16 02:33:19;;;;;;;6.35;3.53;;;17.30;99.90;;;;;;5052516;28;20043;-74
2022/07/16 02:35:45;;;;;;;5.78;3.03;;;17.20;99.90;;;;;;5052621;28;20473;-74
2022/07/16 02:38:12;;;;;;;10.55;3.78;;;17.10;99.90;;;;;;5052766;28;20397;-74
2022/07/16 02:40:39;;;;;;;9.63;3.50;;;16.80;99.90;;;;;;5052503;28;20113;-74
2022/07/16 02:43:06;;;;;;;6.72;2.97;;;16.70;99.90;;;;;;5052835;28;20119;-78
2022/07/16 02:45:37;;;;;;;8.68;3.75;;;16.60;99.90;;;;;;5052553;28;20059;-76
2022/07/16 02:48:03;;;;;;;7.57;3.30;;;16.70;99.90;;;;;;5052276;28;20036;-75
2022/07/16 02:50:29;;;;;;;12.15;4.05;;;16.60;99.90;;;;;;5052840;28;20283;-74
2022/07/16 02:52:56;;;;;;;6.43;3.33;;;16.50;99.90;;;;;;5052448;28;20051;-75
2022/07/16 02:55:22;;;;;;;6.72;4.03;;;16.40;99.90;;;;;;5052593;28;20021;-73
2022/07/16 02:57:48;;;;;;;5.80;3.60;;;16.30;99.90;;;;;;5052221;28;20033;-74
2022/07/16 03:00:16;;;;;;;10.40;4.30;;;16.40;99.90;;;;;;5052509;28;20017;-80
2022/07/16 03:02:43;;;;;;;8.95;3.88;;;16.40;99.90;;;;;;5052032;28;20058;-82
2022/07/16 03:05:10;;;;;;;9.70;4.13;;;16.40;99.90;;;;;;5052451;28;20029;-75
2022/07/16 03:07:36;;;;;;;8.40;4.03;;;16.50;99.90;;;;;;5052364;28;20025;-73
2022/07/16 03:10:03;;;;;;;7.18;4.22;;;16.50;99.90;;;;;;5052271;28;20021;-75
2022/07/16 03:12:28;;;;;;;9.75;4.03;;;16.60;99.90;;;;;;5052170;28;20041;-78
2022/07/16 03:14:54;;;;;;;8.07;3.92;;;16.50;99.90;;;;;;5052374;28;20021;-79
2022/07/16 03:17:20;;;;;;;7.47;4.43;;;16.40;99.90;;;;;;5051975;28;20033;-77
2022/07/16 03:19:46;;;;;;;9.52;4.47;;;16.40;99.90;;;;;;5052243;28;20029;-75
2022/07/16 03:22:11;;;;;;;8.50;4.68;;;16.70;99.90;;;;;;5051931;28;20028;-78
2022/07/16 03:24:37;;;;;;;12.32;4.30;;;16.90;99.90;;;;;;5054338;28;20055;-81
2022/07/16 03:27:03;;;;;;;14.00;4.57;;;17.00;99.90;;;;;;5056212;28;20108;-75
2022/07/16 03:29:29;;;;;;;6.15;4.78;;;17.00;99.90;;;;;;5055089;28;20025;-78
2022/07/16 03:31:55;;;;;;;13.35;4.95;;;16.80;99.90;;;;;;5055536;28;20388;-79
2022/07/16 03:34:21;;;;;;;8.77;4.63;;;16.70;99.90;;;;;;5056063;28;20024;-81
2022/07/16 03:36:47;;;;;;;10.85;5.38;;;16.40;99.90;;;;;;5055803;28;20032;-78
2022/07/16 03:39:13;;;;;;;10.80;4.90;;;16.40;99.90;;;;;;5056108;28;20017;-82
2022/07/16 03:41:39;;;;;;;12.30;4.60;;;16.30;99.90;;;;;;5055655;28;20032;-74
2022/07/16 03:44:07;;;;;;;11.63;5.50;;;16.30;99.90;;;;;;5055932;28;20048;-79
2022/07/16 03:46:35;;;;;;;9.65;5.40;;;16.30;99.90;;;;;;5055454;28;20159;-74
2022/07/16 03:49:01;;;;;;;15.07;5.45;;;16.40;99.90;;;;;;5054959;28;20106;-76
2022/07/16 03:51:27;;;;;;;11.07;5.85;;;16.50;99.90;;;;;;5054881;28;20021;-74
2022/07/16 03:53:53;;;;;;;9.25;5.00;;;16.50;99.90;;;;;;5055341;28;20108;-76
2022/07/16 03:56:20;;;;;;;7.88;5.53;;;16.30;99.90;;;;;;5055424;28;20087;-74
2022/07/16 03:58:45;;;;;;;14.70;5.88;;;16.30;99.90;;;;;;5055547;28;20036;-74
2022/07/16 04:01:11;;;;;;;13.35;5.53;;;16.40;99.90;;;;;;5054970;28;20012;-79
2022/07/16 04:03:37;;;;;;;11.38;5.10;;;16.50;99.90;;;;;;5055415;28;20036;-77
2022/07/16 04:06:04;;;;;;;10.43;5.78;;;16.40;99.90;;;;;;5055519;28;20083;-75
2022/07/16 04:08:30;;;;;;;14.50;5.50;;;16.50;99.90;;;;;;5054071;28;20049;-74
2022/07/16 04:10:56;;;;;;;11.50;6.20;;;16.60;99.90;;;;;;5055161;28;20021;-81
2022/07/16 04:13:22;;;;;;;13.73;5.95;;;16.80;99.90;;;;;;5055077;28;20025;-76
2022/07/16 04:15:48;;;;;;;10.57;5.75;;;16.80;99.90;;;;;;5055111;28;20048;-75
2022/07/16 04:18:14;;;;;;;10.57;5.90;;;16.90;99.90;;;;;;5053895;28;20485;-76
2022/07/16 04:20:40;;;;;;;11.60;5.97;;;16.80;99.90;;;;;;5055086;28;20020;-76
2022/07/16 04:23:06;;;;;;;12.13;5.82;;;16.80;99.90;;;;;;5054839;28;20060;-82
2022/07/16 04:25:32;;;;;;;14.25;5.78;;;16.80;99.90;;;;;;5055228;28;20398;-82
2022/07/16 04:27:58;;;;;;;12.43;5.70;;;16.60;99.90;;;;;;5054879;28;20120;-74
2022/07/16 04:30:24;;;;;;;8.95;5.65;;;16.40;99.90;;;;;;5054931;28;20105;-81
2022/07/16 04:32:50;;;;;;;10.55;5.43;;;16.30;99.90;;;;;;5054864;28;20074;-74
2022/07/16 04:35:16;;;;;;;9.45;5.35;;;16.50;99.90;;;;;;5052473;28;20520;-75
2022/07/16 04:37:42;;;;;;;8.48;5.32;;;16.60;99.90;;;;;;5054931;28;20127;-75
2022/07/16 04:40:10;;;;;;;8.60;5.25;;;16.60;99.90;;;;;;5054725;28;20029;-74
2022/07/16 04:42:37;;;;;;;9.75;5.88;;;16.50;99.90;;;;;;5054884;28;20377;-74
2022/07/16 04:45:03;;;;;;;13.32;4.93;;;16.40;99.90;;;;;;5054329;28;20025;-74
2022/07/16 04:47:29;;;;;;;11.45;5.35;;;16.50;99.90;;;;;;5054976;28;20033;-78
2022/07/16 04:49:55;;;;;;;16.42;5.57;;;16.50;99.90;;;;;;5054798;28;20086;-74
2022/07/16 04:52:21;;;;;;;9.32;4.80;;;16.60;99.90;;;;;;5054506;28;20105;-77
2022/07/16 04:54:47;;;;;;;14.82;5.30;;;16.40;99.90;;;;;;5054469;28;20025;-79
2022/07/16 04:57:12;;;;;;;11.73;4.57;;;16.30;99.90;;;;;;5054205;28;20103;-81
2022/07/16 04:59:38;;;;;;;15.27;4.28;;;16.50;99.90;;;;;;5054191;28;20040;-74
2022/07/16 05:04:48;;;;;;;10.88;3.13;;;16.70;99.90;;;;;;5054192;28;20040;-76
2022/07/16 05:07:14;;;;;;;10.88;3.40;;;17.10;99.90;;;;;;5052906;28;20028;-74
2022/07/16 05:09:40;;;;;;;8.45;3.55;;;17.40;99.90;;;;;;5054019;28;20032;-79
2022/07/16 05:12:06;;;;;;;6.53;3.17;;;17.60;99.90;;;;;;5053968;28;20487;-76
2022/07/16 05:14:32;;;;;;;16.40;3.60;;;17.80;99.90;;;;;;5054383;28;20035;-75
2022/07/16 05:16:57;;;;;;;10.77;3.38;;;18.00;99.90;;;;;;5052832;28;20037;-78
2022/07/16 05:19:23;;;;;;;6.78;3.45;;;18.20;99.90;;;;;;5053903;28;20392;-75
2022/07/16 05:21:49;;;;;;;6.05;3.40;;;18.20;99.90;;;;;;5053956;28;20035;-77
2022/07/16 05:24:15;;;;;;;8.55;2.83;;;18.00;99.90;;;;;;5054029;28;20029;-76
2022/07/16 05:26:41;;;;;;;6.50;2.45;;;18.10;99.90;;;;;;5053503;28;20087;-75
2022/07/16 05:29:07;;;;;;;5.40;2.38;;;18.10;99.90;;;;;;5052633;28;20477;-75
2022/07/16 05:31:33;;;;;;;6.38;2.35;;;18.10;99.90;;;;;;5053828;28;20033;-74
2022/07/16 05:33:59;;;;;;;7.40;1.60;;;18.20;99.90;;;;;;5054282;28;20032;-75
2022/07/16 05:36:25;;;;;;;6.82;1.80;;;18.30;99.90;;;;;;5052344;28;20104;-76
2022/07/16 05:38:51;;;;;;;5.78;2.10;;;18.50;99.90;;;;;;5053528;28;20032;-74
2022/07/16 05:41:17;;;;;;;9.85;2.83;;;18.40;99.90;;;;;;5052009;28;20493;-74
2022/07/16 05:43:42;;;;;;;4.78;1.90;;;18.60;99.90;;;;;;5053623;28;20025;-75
2022/07/16 05:46:08;;;;;;;5.40;1.20;;;18.60;99.90;;;;;;5053395;28;20108;-77
2022/07/16 05:48:34;;;;;;;3.22;1.40;;;18.70;99.90;;;;;;5053120;28;20032;-75
2022/07/16 05:50:59;;;;;;;6.35;1.40;;;18.60;99.90;;;;;;5053357;28;20033;-76
2022/07/16 05:53:25;;;;;;;5.07;1.50;;;18.40;99.90;;;;;;5053399;28;20029;-76
2022/07/16 05:55:51;;;;;;;2.00;1.55;;;18.40;99.90;;;;;;5052794;28;20435;-75
2022/07/16 05:58:17;;;;;;;6.55;2.20;;;18.50;99.90;;;;;;5052221;28;20083;-77
2022/07/16 06:00:42;;;;;;;3.90;1.77;;;18.50;99.90;;;;;;5053202;28;20473;-75
2022/07/16 06:03:08;;;;;;;5.43;2.05;;;18.50;99.90;;;;;;5052001;28;20473;-74
2022/07/16 06:05:35;;;;;;;5.00;2.53;;;18.50;99.90;;;;;;5053326;28;20032;-75
2022/07/16 06:08:02;;;;;;;6.90;2.45;;;18.40;99.90;;;;;;5052962;28;20029;-75
2022/07/16 06:10:27;;;;;;;4.88;2.47;;;18.70;99.90;;;;;;5052440;28;20025;-79
2022/07/16 06:12:53;;;;;;;4.68;2.45;;;18.70;99.90;;;;;;5053385;28;20423;-75
2022/07/16 06:15:19;;;;;;;5.25;2.53;;;18.80;99.90;;;;;;5053118;28;20154;-78
2022/07/16 06:17:45;;;;;;;4.82;2.13;;;18.80;99.90;;;;;;5053193;28;20033;-81
2022/07/16 06:20:11;;;;;;;10.27;2.88;;;18.70;99.90;;;;;;5051466;28;20017;-76
2022/07/16 06:22:38;;;;;;;9.30;2.92;;;18.80;99.90;;;;;;5050000;28;20551;-77
2022/07/16 06:25:04;;;;;;;3.83;2.00;;;18.90;99.90;;;;;;5052225;28;20075;-80
2022/07/16 06:27:30;;;;;;;7.55;2.53;;;18.80;99.90;;;;;;5054567;28;20029;-81
2022/07/16 06:30:00;;;;;;;5.22;2.08;;;18.90;99.90;;;;;;5052333;28;20022;-76
2022/07/16 06:32:26;;;;;;;4.55;1.63;;;19.00;99.90;;;;;;5059150;28;20021;-76
2022/07/16 06:34:52;;;;;;;5.60;2.00;;;19.40;99.90;;;;;;5056642;28;20457;-79
2022/07/16 06:37:17;;;;;;;8.70;2.58;;;19.70;99.90;;;;;;5056168;28;20028;-79
2022/07/16 06:39:43;;;;;;;4.38;2.40;;;19.80;99.90;;;;;;5053557;28;20041;-78
2022/07/16 06:42:09;;;;;;;5.75;2.63;;;19.70;99.90;;;;;;5058287;28;20014;-80
2022/07/16 06:44:40;;;;;;;12.00;3.47;;;19.50;99.90;;;;;;5052452;28;20100;-82
2022/07/16 06:47:06;;;;;;;8.23;2.10;;;19.70;99.90;;;;;;5051226;28;20029;-82
2022/07/16 06:49:32;;;;;;;8.43;2.55;;;20.20;99.90;;;;;;5042447;28;20044;-77
2022/07/16 06:51:58;;;;;;;5.40;1.98;;;20.30;99.90;;;;;;5053563;28;20469;-82
2022/07/16 06:54:24;;;;;;;5.57;2.80;;;20.50;99.90;;;;;;5059675;28;20108;-78
2022/07/16 06:56:49;;;;;;;4.90;1.88;;;20.70;99.90;;;;;;5059746;28;20021;-77
2022/07/16 06:59:15;;;;;;;4.82;1.65;;;20.90;99.90;;;;;;5061328;28;20032;-83
2022/07/16 07:01:41;;;;;;;4.50;2.10;;;20.90;99.90;;;;;;5057695;28;20021;-79
2022/07/16 07:04:07;;;;;;;5.82;2.15;;;21.00;99.90;;;;;;5067968;28;20109;-77
2022/07/16 07:06:32;;;;;;;6.60;2.10;;;21.40;99.90;;;;;;5067451;28;20453;-81
2022/07/16 07:08:58;;;;;;;12.25;2.30;;;21.00;99.90;;;;;;5067714;28;20037;-77
2022/07/16 07:11:24;;;;;;;4.65;1.80;;;21.00;99.90;;;;;;5060864;28;20021;-76
2022/07/16 07:13:50;;;;;;;6.97;2.45;;;20.90;99.90;;;;;;5046805;28;20027;-79
2022/07/16 07:16:16;;;;;;;3.10;1.77;;;21.00;99.90;;;;;;5062458;28;20387;-80
2022/07/16 07:18:42;;;;;;;2.88;1.80;;;20.50;99.90;;;;;;5046217;28;20532;-82
2022/07/16 07:21:08;;;;;;;5.55;1.67;;;20.60;99.90;;;;;;5058227;28;20112;-77
2022/07/16 07:23:33;;;;;;;5.32;1.73;;;20.50;99.90;;;;;;5056320;28;20465;-82
2022/07/16 07:25:59;;;;;;;5.72;1.75;;;20.70;99.90;;;;;;5064903;28;20461;-81
2022/07/16 07:28:25;;;;;;;2.88;1.90;;;21.10;99.90;;;;;;5059971;28;20029;-82
2022/07/16 07:30:51;;;;;;;7.38;1.75;;;21.80;99.90;;;;;;5060919;28;20067;-74
2022/07/16 07:33:17;;;;;;;8.77;2.28;;;21.90;99.90;;;;;;5057862;28;20432;-77
2022/07/16 07:35:42;;;;;;;5.53;2.50;;;22.00;99.90;;;;;;5055856;28;20431;-77
2022/07/16 07:38:08;;;;;;;5.15;1.70;;;22.20;99.90;;;;;;5063539;28;20404;-81
2022/07/16 07:40:34;;;;;;;9.80;1.90;;;22.20;99.90;;;;;;5048778;28;20021;-78
2022/07/16 07:43:00;;;;;;;3.92;1.67;;;22.00;99.90;;;;;;5059741;28;20108;-82
2022/07/16 07:45:26;;;;;;;2.88;1.63;;;21.90;99.90;;;;;;5057203;28;20039;-78
2022/07/16 07:47:53;;;;;;;3.67;1.65;;;21.60;99.90;;;;;;5056137;28;20086;-80
2022/07/16 07:50:19;;;;;;;3.75;1.52;;;21.50;99.90;;;;;;5062773;28;20073;-77
2022/07/16 07:52:45;;;;;;;6.65;1.33;;;21.40;99.90;;;;;;5053051;28;20041;-81
2022/07/16 07:55:10;;;;;;;4.15;1.50;;;21.20;99.90;;;;;;5059104;28;20032;-76
2022/07/16 07:57:36;;;;;;;4.60;1.50;;;21.20;99.90;;;;;;5067134;28;20036;-82
2022/07/16 08:00:04;;;;;;;4.80;1.70;;;21.10;99.90;;;;;;5053258;28;20385;-77
2022/07/16 08:02:43;;;;;;;4.55;1.75;;;21.00;99.90;;;;;;5053855;28;20043;-79
2022/07/16 08:05:10;;;;;;;3.08;1.23;;;20.90;99.90;;;;;;5055588;28;20063;-79
2022/07/16 08:07:36;;;;;;;2.30;1.40;;;20.80;99.90;;;;;;5054505;28;20111;-77
2022/07/16 08:10:03;;;;;;;2.72;1.10;;;20.70;99.90;;;;;;5054349;28;20528;-78
2022/07/16 08:12:29;;;;;;;3.17;0.90;;;21.20;99.90;;;;;;5055238;28;20032;-76
2022/07/16 08:14:55;;;;;;;3.42;1.10;;;21.50;99.90;;;;;;5055173;28;20024;-80
2022/07/16 08:17:20;;;;;;;5.82;1.25;;;21.40;99.90;;;;;;5055155;28;20025;-76
2022/07/16 08:19:46;;;;;;;4.35;1.10;;;21.30;99.90;;;;;;5053702;28;20074;-76
2022/07/16 08:22:12;;;;;;;6.93;1.10;;;21.70;99.90;;;;;;5054538;28;20029;-75
2022/07/16 08:27:22;;;;;;;3.67;1.13;;;22.10;99.90;;;;;;5055017;28;20036;-76
2022/07/16 08:29:48;;;;;;;2.05;0.90;;;22.50;99.90;;;;;;5053463;28;20032;-77
2022/07/16 08:32:14;;;;;;;4.47;1.15;;;22.70;99.90;;;;;;5050294;28;20033;-75
2022/07/16 08:34:39;;;;;;;9.18;1.17;;;23.10;99.90;;;;;;5055851;28;20464;-76
2022/07/16 08:37:10;;;;;;;6.25;1.27;;;22.80;99.90;;;;;;5055844;28;20481;-80
2022/07/16 08:39:44;;;;;;;1.48;0.77;;;22.80;99.90;;;;;;5054676;28;20029;-77
2022/07/16 08:42:11;;;;;;;5.28;0.95;;;23.20;99.90;;;;;;5056729;28;20048;-79
2022/07/16 08:44:39;;;;;;;4.35;1.00;;;23.40;98.90;;;;;;5057352;28;20017;-78
2022/07/16 08:47:09;;;;;;;2.10;0.90;;;23.10;97.30;;;;;;5067180;28;20380;-76
2022/07/16 08:49:37;;;;;;;4.15;1.00;;;23.10;97.40;;;;;;5062250;28;20021;-78
2022/07/16 08:52:07;;;;;;;7.05;1.13;;;23.30;97.10;;;;;;5053640;28;20391;-77
2022/07/16 08:54:33;;;;;;;1.45;0.80;;;23.90;96.80;;;;;;5050765;28;20020;-79
2022/07/16 08:56:59;;;;;;;1.33;0.90;;;24.10;96.60;;;;;;5049351;28;20025;-76
2022/07/16 08:59:29;;;;;;;1.75;1.00;;;24.30;97.00;;;;;;5056864;28;20386;-74
2022/07/16 09:01:55;;;;;;;7.47;0.90;;;24.10;95.10;;;;;;5053643;28;20013;-81
2022/07/16 09:04:21;;;;;;;5.38;0.90;;;24.40;95.30;;;;;;5054038;28;20021;-79
2022/07/16 09:06:46;;;;;;;4.03;1.00;;;24.00;95.00;;;;;;5053792;28;20453;-76
2022/07/16 09:09:13;;;;;;;7.13;1.23;;;23.90;94.90;;;;;;5053467;28;20115;-77
2022/07/16 09:11:39;;;;;;;2.78;1.00;;;24.30;95.10;;;;;;5053508;28;20099;-75
2022/07/16 09:14:07;;;;;;;2.20;1.00;;;24.50;94.60;;;;;;5053911;28;20033;-81
2022/07/16 09:16:49;;;;;;;1.45;0.90;;;24.40;94.30;;;;;;5052034;28;20021;-85
2022/07/16 09:19:21;;;;;;;2.55;1.02;;;24.40;93.80;;;;;;5051766;28;20053;-84
2022/07/16 09:22:06;;;;;;;1.50;0.80;;;23.80;94.10;;;;;;5053000;28;20025;-83
2022/07/16 09:24:47;;;;;;;2.53;0.90;;;24.00;95.10;;;;;;5053123;28;20469;-75
2022/07/16 09:27:15;;;;;;;2.15;0.93;;;24.10;94.80;;;;;;5051931;28;20025;-76
2022/07/16 09:29:53;;;;;;;2.17;0.95;;;24.20;94.10;;;;;;5035554;28;20047;-83
2022/07/16 09:32:28;;;;;;;5.50;1.30;;;24.50;93.70;;;;;;5052264;28;20033;-75
2022/07/16 09:35:13;;;;;;;5.93;1.00;;;24.20;93.40;;;;;;5052256;28;20040;-76
2022/07/16 09:37:59;;;;;;;2.67;1.05;;;24.00;94.60;;;;;;5051805;28;20094;-75
2022/07/16 09:40:35;;;;;;;8.68;1.30;;;24.60;94.60;;;;;;5051933;28;20021;-75
2022/07/16 09:43:03;;;;;;;3.78;1.00;;;25.10;93.70;;;;;;5049342;28;20495;-78
2022/07/16 09:45:29;;;;;;;3.95;1.10;;;25.20;93.40;;;;;;5061977;28;20020;-75
2022/07/16 09:47:55;;;;;;;4.40;0.93;;;25.00;92.70;;;;;;5057587;28;20036;-74
2022/07/16 09:50:21;;;;;;;6.22;1.05;;;25.20;92.00;;;;;;5055471;28;20035;-75
2022/07/16 09:52:47;;;;;;;6.53;1.20;;;25.20;92.40;;;;;;5052557;28;20025;-74
2022/07/16 09:55:13;;;;;;;2.20;1.00;;;25.60;92.70;;;;;;5061656;28;20460;-74
2022/07/16 09:57:42;;;;;;;3.50;0.98;;;25.90;92.40;;;;;;5063027;28;20480;-75
2022/07/16 10:00:08;;;;;;;5.47;1.23;;;25.90;91.90;;;;;;5061270;28;20040;-74
2022/07/16 10:02:42;;;;;;;2.95;1.10;;;25.70;92.50;;;;;;5059798;28;20032;-74
2022/07/16 10:05:08;;;;;;;3.40;1.30;;;26.40;92.00;;;;;;5053504;28;20110;-74
2022/07/16 10:07:34;;;;;;;4.13;1.23;;;26.40;91.90;;;;;;5064927;28;20032;-74
2022/07/16 10:10:00;;;;;;;3.33;1.40;;;25.00;92.10;;;;;;5062232;28;20036;-73
2022/07/16 10:12:29;;;;;;;4.45;1.55;;;25.00;92.70;;;;;;5062700;28;20443;-74
2022/07/16 10:14:55;;;;;;;3.13;1.10;;;25.20;93.40;;;;;;5052777;28;20025;-75
2022/07/16 10:17:23;;;;;;;7.82;1.30;;;25.00;92.30;;;;;;5049718;28;20071;-75
2022/07/16 10:20:08;;;;;;;5.40;1.00;;;25.10;92.20;;;;;;5051221;28;20488;-75
2022/07/16 10:22:37;;;;;;;3.47;0.90;;;24.80;91.30;;;;;;5050807;28;20036;-74
2022/07/16 10:25:14;;;;;;;2.33;1.15;;;24.70;91.50;;;;;;5051933;28;20473;-75
2022/07/16 10:27:42;;;;;;;2.00;0.90;;;25.10;92.40;;;;;;5051555;28;20037;-75
2022/07/16 10:30:39;;;;;;;3.95;1.00;;;25.40;92.00;;;;;;5052512;28;20024;-76
2022/07/16 10:33:10;;;;;;;3.08;1.13;;;25.80;91.70;;;;;;5048674;28;20094;-78
2022/07/16 10:35:50;;;;;;;5.78;1.25;;;25.90;90.70;;;;;;5054075;28;20386;-74
2022/07/16 10:38:23;;;;;;;7.20;1.40;;;25.80;90.80;;;;;;5054879;28;20067;-75
2022/07/16 10:41:07;;;;;;;5.10;1.50;;;26.00;91.10;;;;;;5051724;28;20389;-74
2022/07/16 10:43:33;;;;;;;3.65;1.27;;;26.30;90.70;;;;;;5046355;28;20035;-73
2022/07/16 10:46:02;;;;;;;3.03;1.17;;;26.10;90.70;;;;;;5058887;28;20029;-78
2022/07/16 10:48:30;;;;;;;1.83;1.00;;;25.50;90.00;;;;;;5050473;28;20112;-79
2022/07/16 10:51:15;;;;;;;2.17;1.20;;;25.90;91.00;;;;;;5038912;28;20025;-80
2022/07/16 10:53:57;;;;;;;7.30;1.45;;;26.10;90.50;;;;;;5046939;28;20037;-79
2022/07/16 10:56:32;;;;;;;1.67;0.88;;;26.00;90.30;;;;;;5063079;28;20048;-79
2022/07/16 10:58:58;;;;;;;6.20;1.77;;;26.00;91.00;;;;;;5067001;28;20049;-79
2022/07/16 11:01:25;;;;;;;4.93;1.20;;;26.10;90.30;;;;;;5066516;28;20020;-80
2022/07/16 11:03:53;;;;;;;3.53;1.17;;;26.30;90.20;;;;;;5070975;28;20020;-79
2022/07/16 11:06:21;;;;;;;3.72;1.45;;;26.30;89.90;;;;;;5057174;28;20112;-78
2022/07/16 11:08:55;;;;;;;2.58;1.27;;;26.60;90.40;;;;;;5052024;28;20036;-77
2022/07/16 11:11:22;;;;;;;3.22;1.75;;;26.90;90.10;;;;;;5054663;28;20024;-77
2022/07/16 11:13:52;;;;;;;3.53;1.45;;;27.00;90.10;;;;;;5047375;28;20056;-77
2022/07/16 11:16:18;;;;;;;6.15;2.00;;;26.10;91.10;;;;;;5043964;28;20090;-82
2022/07/16 11:18:44;;;;;;;4.70;1.52;;;26.30;90.40;;;;;;5049477;28;20033;-82
2022/07/16 11:21:10;;;;;;;4.85;1.70;;;26.60;90.30;;;;;;5020638;28;20573;-82
2022/07/16 11:23:49;;;;;;;8.73;1.70;;;26.10;90.70;;;;;;5049076;28;20043;-82
2022/07/16 11:26:16;;;;;;;6.45;2.00;;;26.60;90.60;;;;;;5045472;28;20036;-81
2022/07/16 11:28:59;;;;;;;6.50;1.88;;;26.30;89.60;;;;;;5051134;28;20024;-81
2022/07/16 11:31:34;;;;;;;5.32;1.38;;;25.50;90.40;;;;;;5050324;28;20392;-81
2022/07/16 11:34:02;;;;;;;3.08;1.58;;;25.50;90.70;;;;;;5039295;28;20021;-81
2022/07/16 11:36:40;;;;;;;6.07;1.60;;;25.10;90.00;;;;;;5051789;28;20442;-81
2022/07/16 11:39:13;;;;;;;3.03;1.13;;;25.70;91.10;;;;;;5043530;28;20462;-81
2022/07/16 11:41:43;;;;;;;6.10;1.42;;;26.30;89.30;;;;;;5046175;28;20040;-81
2022/07/16 11:44:17;;;;;;;2.50;1.08;;;26.50;90.10;;;;;;5036836;28;20021;-81
2022/07/16 11:46:46;;;;;;;6.00;1.30;;;25.50;90.10;;;;;;5055113;28;20529;-81
2022/07/16 11:49:21;;;;;;;3.17;1.30;;;25.20;90.30;;;;;;5055183;28;20029;-81
2022/07/16 11:51:47;;;;;;;2.60;1.40;;;24.70;89.70;;;;;;5054615;28;20129;-82
2022/07/16 11:54:13;;;;;;;2.85;1.20;;;25.30;90.40;;;;;;5054216;28;20109;-82
2022/07/16 11:56:41;;;;;;;4.93;1.40;;;26.10;90.10;;;;;;5055412;28;20063;-81
2022/07/16 11:59:28;;;;;;;4.10;1.33;;;25.80;88.50;;;;;;5053159;28;20473;-81
2022/07/16 12:02:07;;;;;;;4.25;1.52;;;26.50;88.40;;;;;;5055244;28;20416;-81
2022/07/16 12:04:40;;;;;;;2.15;1.08;;;26.70;88.00;;;;;;5054959;28;20037;-81
2022/07/16 12:07:25;;;;;;;6.75;1.48;;;26.60;88.20;;;;;;5054590;28;20108;-81
2022/07/16 12:10:00;;;;;;;3.70;1.20;;;26.80;88.30;;;;;;5054128;28;20037;-81
2022/07/16 12:12:34;;;;;;;2.50;1.25;;;27.00;86.90;;;;;;5053123;28;20021;-82
2022/07/16 12:15:06;;;;;;;2.85;1.30;;;27.30;86.60;;;;;;5054479;28;20036;-81
2022/07/16 12:17:36;;;;;;;5.22;2.17;;;27.10;84.50;;;;;;5054581;28;20388;-81
2022/07/16 12:20:25;;;;;;;4.03;1.40;;;26.70;85.00;;;;;;5054433;28;20104;-81
2022/07/16 12:23:01;;;;;;;3.65;1.45;;;27.20;87.00;;;;;;5053579;28;20035;-82
2022/07/16 12:25:41;;;;;;;7.40;1.40;;;27.30;84.70;;;;;;5053352;28;20033;-81
2022/07/16 12:28:08;;;;;;;8.27;1.60;;;26.60;85.50;;;;;;5053923;28;20033;-81
2022/07/16 12:30:45;;;;;;;2.65;1.30;;;26.60;88.20;;;;;;5054827;28;20021;-81
2022/07/16 12:33:23;;;;;;;3.03;1.23;;;27.20;85.00;;;;;;5052521;28;20025;-82
2022/07/16 12:35:53;;;;;;;5.43;1.48;;;27.50;83.90;;;;;;5054083;28;20439;-81
2022/07/16 12:38:44;;;;;;;5.97;1.70;;;27.30;83.50;;;;;;5053502;28;20124;-82
2022/07/16 12:41:33;;;;;;;3.45;1.58;;;27.70;85.00;;;;;;5053719;28;20024;-82
2022/07/16 12:44:05;;;;;;;2.35;1.00;;;28.50;84.40;;;;;;5050794;28;20028;-84
2022/07/16 12:46:33;;;;;;;4.35;1.25;;;28.30;84.40;;;;;;5059300;28;20040;-83
2022/07/16 12:49:03;;;;;;;3.83;1.30;;;28.50;84.10;;;;;;5054454;28;20092;-84
2022/07/16 12:51:31;;;;;;;3.00;1.30;;;27.90;83.40;;;;;;5061207;28;20044;-83
2022/07/16 12:53:58;;;;;;;5.80;1.30;;;27.60;84.40;;;;;;5050298;28;20025;-83
2022/07/16 12:59:09;;;;;;;11.88;1.55;;;27.00;83.90;;;;;;5054055;28;20124;-84
2022/07/16 13:01:36;;;;;;;6.25;1.67;;;26.50;86.00;;;;;;5054452;28;20057;-84